Time;durP1;ratioP1;P1;durP2;ratioP2;P2;SDS_P1;SDS_P2;PMS_P1;PMS_P2;Temp;Humidity;BMP_temperature;BMP_pressure;BME280_temperature;BME280_humidity;BME280_pressure;Samples;Min_cycle;Max_cycle;Signal;HPM_P1;HPM_P2
2023/06/10 00:01:23;;;;;;;;;;;22.20;91.50;;;;;;5116605;28;20007;-41
2023/06/10 00:03:49;;;;;;;;;;;22.20;91.50;;;;;;5116908;28;19948;-41
2023/06/10 00:06:15;;;;;;;;;;;22.20;91.50;;;;;;5116545;28;19910;-41
2023/06/10 00:08:40;;;;;;;;;;;22.20;91.50;;;;;;5116470;28;20253;-40
2023/06/10 00:11:06;;;;;;;;;;;22.20;91.30;;;;;;5116446;28;19946;-43
2023/06/10 00:13:31;;;;;;;;;;;22.10;91.40;;;;;;5116447;28;19915;-42
2023/06/10 00:15:57;;;;;;;;;;;22.20;91.50;;;;;;5116407;28;19998;-40
2023/06/10 00:18:22;;;;;;;;;;;22.20;91.60;;;;;;5116282;28;20239;-41
2023/06/10 00:20:52;;;;;;;;;;;22.10;91.60;;;;;;5116039;28;20399;-41
2023/06/10 00:23:18;;;;;;;;;;;22.20;91.40;;;;;;5116234;28;19904;-41
2023/06/10 00:25:43;;;;;;;;;;;22.10;91.40;;;;;;5116188;28;19949;-41
2023/06/10 00:28:09;;;;;;;;;;;22.10;91.40;;;;;;5116181;28;20253;-41
2023/06/10 00:30:34;;;;;;;;;;;22.10;91.40;;;;;;5115721;28;19957;-40
2023/06/10 00:33:00;;;;;;;;;;;22.10;91.30;;;;;;5116094;28;19911;-40
2023/06/10 00:35:25;;;;;;;;;;;22.10;91.40;;;;;;5116032;28;19955;-42
2023/06/10 00:37:51;;;;;;;;;;;22.10;91.50;;;;;;5115664;28;19915;-43
2023/06/10 00:40:16;;;;;;;;;;;22.10;91.70;;;;;;5115949;28;20440;-42
2023/06/10 00:42:42;;;;;;;;;;;22.10;91.30;;;;;;5115797;28;19903;-40
2023/06/10 00:45:07;;;;;;;;;;;22.10;91.40;;;;;;5115959;28;20011;-42
2023/06/10 00:47:35;;;;;;;;;;;22.10;91.50;;;;;;5115250;28;20366;-41
2023/06/10 00:50:01;;;;;;;;;;;22.10;91.70;;;;;;5115448;28;19911;-43
2023/06/10 00:52:28;;;;;;;;;;;22.10;91.60;;;;;;5115154;28;19912;-43
2023/06/10 00:54:54;;;;;;;;;;;22.10;91.50;;;;;;5114704;28;19903;-41
2023/06/10 00:57:19;;;;;;;;;;;22.10;91.70;;;;;;5115539;28;19973;-41
2023/06/10 00:59:47;;;;;;;;;;;22.10;91.80;;;;;;5115561;28;19908;-41
2023/06/10 01:02:13;;;;;;;;;;;22.10;92.00;;;;;;5115196;28;19910;-42
2023/06/10 01:04:39;;;;;;;;;;;22.10;92.30;;;;;;5115363;28;19908;-41
2023/06/10 01:07:12;;;;;;;;;;;22.10;92.00;;;;;;5115390;28;19911;-41
2023/06/10 01:09:41;;;;;;;;;;;22.10;91.90;;;;;;5115198;28;19907;-41
2023/06/10 01:12:12;;;;;;;;;;;22.10;92.00;;;;;;5114929;28;19912;-41
2023/06/10 01:14:38;;;;;;;;;;;22.10;92.00;;;;;;5114993;28;19904;-41
2023/06/10 01:17:04;;;;;;;;;;;22.10;92.10;;;;;;5115200;28;19910;-40
2023/06/10 01:19:31;;;;;;;;;;;22.10;92.20;;;;;;5115196;28;20254;-41
2023/06/10 01:22:00;;;;;;;;;;;22.10;92.10;;;;;;5115163;28;19903;-40
2023/06/10 01:24:26;;;;;;;;;;;22.10;92.10;;;;;;5115153;28;19965;-40
2023/06/10 01:26:53;;;;;;;;;;;22.10;92.00;;;;;;5115030;28;20330;-42
2023/06/10 01:29:30;;;;;;;;;;;22.10;92.00;;;;;;5114670;28;19903;-41
2023/06/10 01:32:06;;;;;;;;;;;22.10;92.10;;;;;;5115008;28;19912;-41
2023/06/10 01:34:32;;;;;;;;;;;22.10;92.20;;;;;;5115272;28;19930;-40
2023/06/10 01:36:58;;;;;;;;;;;22.10;92.30;;;;;;5114815;28;19904;-40
2023/06/10 01:39:24;;;;;;;;;;;22.10;92.40;;;;;;5114830;28;19910;-41
2023/06/10 01:41:51;;;;;;;;;;;22.10;92.40;;;;;;5114483;28;19912;-41
2023/06/10 01:44:17;;;;;;;;;;;22.10;92.40;;;;;;5114850;28;20305;-41
2023/06/10 01:46:43;;;;;;;;;;;22.10;92.40;;;;;;5114833;28;19916;-43
2023/06/10 01:49:08;;;;;;;;;;;22.10;92.50;;;;;;5114304;28;20331;-41
2023/06/10 01:51:34;;;;;;;;;;;22.10;92.50;;;;;;5114478;28;19912;-41
2023/06/10 01:53:59;;;;;;;;;;;22.10;92.50;;;;;;5114652;28;19904;-41
2023/06/10 01:56:25;;;;;;;;;;;22.10;92.50;;;;;;5114548;28;19954;-42
2023/06/10 01:58:50;;;;;;;;;;;22.10;92.50;;;;;;5114253;28;19904;-41
2023/06/10 02:01:16;;;;;;;;;;;22.10;92.50;;;;;;5114631;28;20330;-42
2023/06/10 02:03:41;;;;;;;;;;;22.10;92.60;;;;;;5114645;28;20351;-41
2023/06/10 02:06:07;;;;;;;;;;;22.10;92.60;;;;;;5113821;28;19907;-41
2023/06/10 02:08:32;;;;;;;;;;;22.10;92.60;;;;;;5114537;28;19904;-43
2023/06/10 02:10:58;;;;;;;;;;;22.10;92.60;;;;;;5114738;28;19915;-41
2023/06/10 02:13:23;;;;;;;;;;;22.10;92.60;;;;;;5114541;28;19904;-42
2023/06/10 02:15:49;;;;;;;;;;;22.10;92.60;;;;;;5114497;28;19975;-41
2023/06/10 02:18:14;;;;;;;;;;;22.10;92.60;;;;;;5096186;28;19904;-44
2023/06/10 02:20:40;;;;;;;;;;;22.10;92.60;;;;;;5114194;28;20305;-42
2023/06/10 02:23:05;;;;;;;;;;;22.10;92.60;;;;;;5114450;28;20347;-41
2023/06/10 02:25:31;;;;;;;;;;;22.10;92.70;;;;;;5114394;28;19951;-42
2023/06/10 02:27:56;;;;;;;;;;;22.10;92.60;;;;;;5114128;28;19947;-41
2023/06/10 02:30:22;;;;;;;;;;;22.10;92.70;;;;;;5114367;28;19908;-41
2023/06/10 02:32:48;;;;;;;;;;;22.10;92.70;;;;;;5114305;28;20262;-41
2023/06/10 02:35:17;;;;;;;;;;;22.10;92.70;;;;;;5114261;28;20002;-43
2023/06/10 02:37:43;;;;;;;;;;;22.10;92.70;;;;;;5114155;28;19912;-42
2023/06/10 02:40:09;;;;;;;;;;;22.10;92.70;;;;;;5114111;28;20303;-41
2023/06/10 02:42:34;;;;;;;;;;;22.10;92.70;;;;;;5113877;28;19904;-44
2023/06/10 02:45:00;;;;;;;;;;;22.00;92.70;;;;;;5114430;28;19911;-42
2023/06/10 02:47:26;;;;;;;;;;;22.10;92.80;;;;;;5114166;28;19916;-42
2023/06/10 02:49:51;;;;;;;;;;;22.10;92.80;;;;;;5113900;28;20345;-41
2023/06/10 02:52:17;;;;;;;;;;;22.10;92.80;;;;;;5113885;28;19921;-42
2023/06/10 02:54:42;;;;;;;;;;;22.10;92.80;;;;;;5114189;28;19998;-43
2023/06/10 02:57:09;;;;;;;;;;;22.10;92.80;;;;;;5114226;28;19904;-42
2023/06/10 02:59:35;;;;;;;;;;;22.10;92.90;;;;;;5114101;28;19908;-41
2023/06/10 03:02:01;;;;;;;;;;;22.10;92.90;;;;;;5114134;28;19903;-40
2023/06/10 03:04:28;;;;;;;;;;;22.10;92.90;;;;;;5114067;28;20022;-41
2023/06/10 03:06:54;;;;;;;;;;;22.10;92.90;;;;;;5114066;28;20346;-41
2023/06/10 03:09:20;;;;;;;;;;;22.10;92.90;;;;;;5114216;28;19904;-43
2023/06/10 03:11:45;;;;;;;;;;;22.10;92.90;;;;;;5113550;28;19915;-41
2023/06/10 03:14:11;;;;;;;;;;;22.10;92.90;;;;;;5113873;28;19979;-41
2023/06/10 03:16:40;;;;;;;;;;;22.10;93.00;;;;;;5114373;28;19998;-41
2023/06/10 03:19:06;;;;;;;;;;;22.10;93.20;;;;;;5117600;28;19910;-43
2023/06/10 03:21:31;;;;;;;;;;;22.10;93.00;;;;;;5117530;28;20354;-41
2023/06/10 03:23:57;;;;;;;;;;;22.10;93.00;;;;;;5117474;28;19903;-41
2023/06/10 03:26:22;;;;;;;;;;;22.10;93.00;;;;;;5117028;28;19956;-42
2023/06/10 03:28:48;;;;;;;;;;;22.00;93.00;;;;;;5117318;28;20246;-42
2023/06/10 03:31:16;;;;;;;;;;;22.10;93.00;;;;;;5117345;28;19911;-41
2023/06/10 03:33:42;;;;;;;;;;;22.10;93.00;;;;;;5117180;28;19911;-41
2023/06/10 03:36:07;;;;;;;;;;;22.10;93.00;;;;;;5117578;28;19910;-43
2023/06/10 03:38:33;;;;;;;;;;;22.00;92.90;;;;;;5117207;28;19907;-41
2023/06/10 03:40:58;;;;;;;;;;;22.10;93.00;;;;;;5117469;28;19911;-40
2023/06/10 03:43:24;;;;;;;;;;;22.10;92.90;;;;;;5117081;28;19904;-41
2023/06/10 03:45:49;;;;;;;;;;;22.00;92.80;;;;;;5116726;28;19904;-41
2023/06/10 03:48:15;;;;;;;;;;;22.00;92.80;;;;;;5116685;28;19915;-41
2023/06/10 03:50:40;;;;;;;;;;;22.00;92.90;;;;;;5116602;28;19904;-41
2023/06/10 03:53:06;;;;;;;;;;;22.00;92.90;;;;;;5116876;28;19911;-43
2023/06/10 03:55:31;;;;;;;;;;;22.00;93.00;;;;;;5098742;28;19954;-42
2023/06/10 03:57:58;;;;;;;;;;;22.00;93.00;;;;;;5116774;28;19903;-42
2023/06/10 04:00:23;;;;;;;;;;;22.10;93.00;;;;;;5116512;28;20369;-40
2023/06/10 04:02:51;;;;;;;;;;;22.10;93.00;;;;;;5116758;28;19904;-42
2023/06/10 04:05:17;;;;;;;;;;;22.10;93.10;;;;;;5116658;28;19903;-40
2023/06/10 04:07:43;;;;;;;;;;;22.10;93.10;;;;;;5116430;28;20368;-44
2023/06/10 04:10:12;;;;;;;;;;;22.10;93.10;;;;;;5098251;28;19908;-41
2023/06/10 04:12:38;;;;;;;;;;;22.10;93.10;;;;;;5116311;28;19918;-43
2023/06/10 04:15:04;;;;;;;;;;;22.10;93.10;;;;;;5116425;28;19904;-42
2023/06/10 04:17:30;;;;;;;;;;;22.20;93.10;;;;;;5116523;28;19956;-45
2023/06/10 04:19:55;;;;;;;;;;;22.20;93.00;;;;;;5116348;28;19903;-42
2023/06/10 04:22:22;;;;;;;;;;;22.20;93.00;;;;;;5116001;28;19907;-41
2023/06/10 04:24:48;;;;;;;;;;;22.20;92.90;;;;;;5116227;28;19907;-41
2023/06/10 04:27:13;;;;;;;;;;;22.20;92.60;;;;;;5116067;28;20012;-41
2023/06/10 04:29:39;;;;;;;;;;;22.20;92.60;;;;;;5116019;28;19903;-41
2023/06/10 04:32:06;;;;;;;;;;;22.20;92.60;;;;;;5116175;28;19912;-41
2023/06/10 04:34:35;;;;;;;;;;;22.20;92.70;;;;;;5115726;28;19914;-42
2023/06/10 04:37:01;;;;;;;;;;;22.20;92.80;;;;;;5116039;28;20360;-42
2023/06/10 04:39:27;;;;;;;;;;;22.20;92.70;;;;;;5115893;28;19904;-41
2023/06/10 04:41:52;;;;;;;;;;;22.30;92.80;;;;;;5097889;28;19903;-41
2023/06/10 04:44:18;;;;;;;;;;;22.30;92.70;;;;;;5115803;28;19962;-42
2023/06/10 04:46:44;;;;;;;;;;;22.30;92.80;;;;;;5115582;28;20011;-41
2023/06/10 04:49:09;;;;;;;;;;;22.30;92.80;;;;;;5115663;28;20429;-41
2023/06/10 04:51:35;;;;;;;;;;;22.30;92.70;;;;;;5115442;28;19912;-41
2023/06/10 04:54:04;;;;;;;;;;;22.30;92.70;;;;;;5115731;28;19927;-42
2023/06/10 04:56:30;;;;;;;;;;;22.30;92.80;;;;;;5115390;28;19904;-44
2023/06/10 04:58:56;;;;;;;;;;;22.30;92.70;;;;;;5115935;28;19903;-42
2023/06/10 05:01:21;;;;;;;;;;;22.30;92.70;;;;;;5115248;28;19908;-42
2023/06/10 05:03:47;;;;;;;;;;;22.30;92.70;;;;;;5115512;28;19927;-43
2023/06/10 05:06:12;;;;;;;;;;;22.30;92.80;;;;;;5115097;28;19957;-41
2023/06/10 05:08:38;;;;;;;;;;;22.30;92.80;;;;;;5115527;28;19904;-41
2023/06/10 05:11:03;;;;;;;;;;;22.30;92.80;;;;;;5115270;28;20054;-41
2023/06/10 05:13:29;;;;;;;;;;;22.30;92.80;;;;;;5114980;28;19904;-41
2023/06/10 05:15:55;;;;;;;;;;;22.30;92.80;;;;;;5115241;28;19986;-41
2023/06/10 05:18:21;;;;;;;;;;;22.30;92.80;;;;;;5115250;28;20068;-41
2023/06/10 05:20:46;;;;;;;;;;;22.30;92.80;;;;;;5115494;28;19903;-41
2023/06/10 05:23:12;;;;;;;;;;;22.30;92.80;;;;;;5114901;28;19907;-41
2023/06/10 05:25:37;;;;;;;;;;;22.30;92.80;;;;;;5114844;28;19904;-40
2023/06/10 05:28:03;;;;;;;;;;;22.30;92.80;;;;;;5096831;28;20288;-41
2023/06/10 05:30:28;;;;;;;;;;;22.30;92.80;;;;;;5115016;28;19990;-41
2023/06/10 05:32:55;;;;;;;;;;;22.30;92.80;;;;;;5114849;28;19912;-42
2023/06/10 05:35:21;;;;;;;;;;;22.30;92.70;;;;;;5114919;28;19935;-42
2023/06/10 05:37:46;;;;;;;;;;;22.30;92.70;;;;;;5114855;28;19947;-41
2023/06/10 05:40:12;;;;;;;;;;;22.30;92.70;;;;;;5111491;28;20002;-42
2023/06/10 05:42:37;;;;;;;;;;;22.30;92.70;;;;;;5093869;28;19904;-43
2023/06/10 05:45:03;;;;;;;;;;;22.40;92.80;;;;;;5098565;28;20004;-41
2023/06/10 05:47:29;;;;;;;;;;;22.30;92.80;;;;;;5093286;28;19916;-41
2023/06/10 05:49:54;;;;;;;;;;;22.30;92.70;;;;;;5094563;28;19908;-42
2023/06/10 05:52:20;;;;;;;;;;;22.30;92.40;;;;;;5094033;28;20255;-41
2023/06/10 05:54:45;;;;;;;;;;;22.30;92.60;;;;;;5093961;28;19943;-43
2023/06/10 05:57:11;;;;;;;;;;;22.30;92.70;;;;;;5092517;28;19968;-40
2023/06/10 05:59:36;;;;;;;;;;;22.30;92.80;;;;;;5094145;28;19904;-47
2023/06/10 06:02:02;;;;;;;;;;;22.40;92.90;;;;;;5097446;28;20398;-43
2023/06/10 06:04:28;;;;;;;;;;;22.40;92.90;;;;;;5094242;28;19904;-45
2023/06/10 06:06:53;;;;;;;;;;;22.40;92.90;;;;;;5101316;28;20025;-43
2023/06/10 06:09:18;;;;;;;;;;;22.40;93.00;;;;;;5114202;28;19951;-43
2023/06/10 06:11:44;;;;;;;;;;;22.40;93.10;;;;;;5111850;28;19935;-42
2023/06/10 06:14:09;;;;;;;;;;;22.40;93.10;;;;;;5096485;28;19994;-43
2023/06/10 06:16:35;;;;;;;;;;;22.40;93.00;;;;;;5101971;28;19918;-42
2023/06/10 06:19:00;;;;;;;;;;;22.40;93.00;;;;;;5090243;28;20282;-45
2023/06/10 06:21:27;;;;;;;;;;;22.40;93.00;;;;;;5113898;28;19914;-44
2023/06/10 06:23:53;;;;;;;;;;;22.30;92.80;;;;;;5113979;28;19908;-44
2023/06/10 06:26:18;;;;;;;;;;;22.40;92.80;;;;;;5113979;28;19961;-47
2023/06/10 06:28:44;;;;;;;;;;;22.40;92.90;;;;;;5114168;28;19933;-44
2023/06/10 06:31:09;;;;;;;;;;;22.40;92.90;;;;;;5114107;28;20306;-43
2023/06/10 06:33:35;;;;;;;;;;;22.40;92.80;;;;;;5114231;28;19987;-44
2023/06/10 06:36:00;;;;;;;;;;;22.40;92.90;;;;;;5114007;28;19915;-42
2023/06/10 06:38:26;;;;;;;;;;;22.40;92.90;;;;;;5113945;28;20311;-43
2023/06/10 06:40:51;;;;;;;;;;;22.40;92.80;;;;;;5114063;28;20335;-42
2023/06/10 06:43:18;;;;;;;;;;;22.40;93.10;;;;;;5113683;28;19912;-42
2023/06/10 06:45:44;;;;;;;;;;;22.40;92.90;;;;;;5113983;28;19930;-45
2023/06/10 06:48:10;;;;;;;;;;;22.40;93.00;;;;;;5114176;28;19972;-42
2023/06/10 06:50:36;;;;;;;;;;;22.40;93.00;;;;;;5114289;28;20313;-42
2023/06/10 06:53:01;;;;;;;;;;;22.30;92.90;;;;;;5117985;28;20266;-48
2023/06/10 06:55:27;;;;;;;;;;;22.30;92.90;;;;;;5118142;28;19908;-42
2023/06/10 06:57:52;;;;;;;;;;;22.40;93.00;;;;;;5117798;28;20025;-43
2023/06/10 07:00:18;;;;;;;;;;;22.40;92.90;;;;;;5117180;28;19908;-43
2023/06/10 07:02:43;;;;;;;;;;;22.40;92.90;;;;;;5117697;28;19914;-42
2023/06/10 07:05:09;;;;;;;;;;;22.40;92.90;;;;;;5117468;28;20362;-42
2023/06/10 07:07:34;;;;;;;;;;;22.40;92.90;;;;;;5117601;28;19968;-42
2023/06/10 07:10:00;;;;;;;;;;;22.40;92.90;;;;;;5117910;28;20411;-42
2023/06/10 07:12:25;;;;;;;;;;;22.40;92.90;;;;;;5117495;28;19923;-42
2023/06/10 07:14:51;;;;;;;;;;;22.40;92.90;;;;;;5117369;28;20361;-42
2023/06/10 07:17:17;;;;;;;;;;;22.40;92.90;;;;;;5117723;28;19954;-43
2023/06/10 07:19:43;;;;;;;;;;;22.40;92.90;;;;;;5117273;28;19907;-41
2023/06/10 07:22:09;;;;;;;;;;;22.30;92.90;;;;;;5117694;28;19915;-43
2023/06/10 07:24:34;;;;;;;;;;;22.40;93.10;;;;;;5117266;28;19908;-45
2023/06/10 07:26:59;;;;;;;;;;;22.30;92.80;;;;;;5117182;28;19980;-43
2023/06/10 07:29:25;;;;;;;;;;;22.40;92.90;;;;;;5117416;28;20393;-42
2023/06/10 07:31:51;;;;;;;;;;;22.40;92.90;;;;;;5117084;28;20278;-43
2023/06/10 07:34:16;;;;;;;;;;;22.40;92.80;;;;;;5117081;28;19915;-42
2023/06/10 07:36:41;;;;;;;;;;;22.40;92.80;;;;;;5116669;28;20274;-44
2023/06/10 07:39:07;;;;;;;;;;;22.30;92.70;;;;;;5116620;28;20028;-42
2023/06/10 07:41:33;;;;;;;;;;;22.40;92.80;;;;;;5116956;28;19908;-41
2023/06/10 07:43:58;;;;;;;;;;;22.40;92.70;;;;;;5116937;28;19914;-42
2023/06/10 07:46:24;;;;;;;;;;;22.40;92.70;;;;;;5116756;28;19932;-43
2023/06/10 07:48:49;;;;;;;;;;;22.30;92.70;;;;;;5104240;28;21504;-44
2023/06/10 07:51:16;;;;;;;;;;;22.40;92.80;;;;;;5095605;28;19924;-45
2023/06/10 07:53:41;;;;;;;;;;;22.40;92.80;;;;;;5094721;28;20010;-43
2023/06/10 07:56:07;;;;;;;;;;;22.40;92.80;;;;;;5100264;28;20049;-44
2023/06/10 07:58:32;;;;;;;;;;;22.40;92.70;;;;;;5104273;28;19915;-42
2023/06/10 08:00:58;;;;;;;;;;;22.30;92.60;;;;;;5094413;28;20362;-41
2023/06/10 08:03:23;;;;;;;;;;;22.30;92.40;;;;;;5109600;28;19912;-44
2023/06/10 08:05:49;;;;;;;;;;;22.30;92.40;;;;;;5114902;28;20259;-43
2023/06/10 08:08:14;;;;;;;;;;;22.30;92.40;;;;;;5115362;28;19918;-44
2023/06/10 08:10:40;;;;;;;;;;;22.30;92.20;;;;;;5116375;28;19947;-45
2023/06/10 08:13:05;;;;;;;;;;;22.30;92.10;;;;;;5111797;28;19960;-44
2023/06/10 08:15:30;;;;;;;;;;;22.30;91.90;;;;;;5110245;28;19918;-47
2023/06/10 08:17:56;;;;;;;;;;;22.30;92.20;;;;;;5105655;28;19915;-44
2023/06/10 08:20:22;;;;;;;;;;;22.40;92.20;;;;;;5087795;28;19944;-45
2023/06/10 08:22:47;;;;;;;;;;;22.30;92.10;;;;;;5075494;28;20010;-46
2023/06/10 08:25:13;;;;;;;;;;;22.30;92.20;;;;;;5075433;28;20351;-42
2023/06/10 08:27:38;;;;;;;;;;;22.30;92.30;;;;;;5075113;28;19909;-46
2023/06/10 08:30:04;;;;;;;;;;;22.40;92.40;;;;;;5075678;28;19909;-44
2023/06/10 08:32:30;;;;;;;;;;;22.40;92.50;;;;;;5075329;28;19924;-43
2023/06/10 08:34:55;;;;;;;;;;;22.30;92.50;;;;;;5075225;28;20355;-45
2023/06/10 08:37:21;;;;;;;;;;;22.40;92.40;;;;;;5074925;28;19948;-43
2023/06/10 08:39:47;;;;;;;;;;;22.30;92.40;;;;;;5075099;28;19916;-43
2023/06/10 08:42:27;;;;;;;;;;;22.40;92.50;;;;;;5075033;28;19908;-46
2023/06/10 08:44:57;;;;;;;;;;;22.40;92.60;;;;;;5074775;28;19909;-42
2023/06/10 08:47:23;;;;;;;;;;;22.40;92.60;;;;;;5075090;28;19924;-44
2023/06/10 08:49:48;;;;;;;;;;;22.40;92.60;;;;;;5074728;28;20346;-47
2023/06/10 08:52:17;;;;;;;;;;;22.40;92.60;;;;;;5074667;28;20007;-45
2023/06/10 08:54:48;;;;;;;;;;;22.40;92.60;;;;;;5075099;28;19908;-44
2023/06/10 08:57:15;;;;;;;;;;;22.40;92.60;;;;;;5074864;28;19916;-45
2023/06/10 08:59:40;;;;;;;;;;;22.40;92.60;;;;;;5074608;28;19912;-44
2023/06/10 09:02:06;;;;;;;;;;;22.40;92.60;;;;;;5074689;28;19908;-43
2023/06/10 09:04:33;;;;;;;;;;;22.40;92.60;;;;;;5074670;28;19952;-46
2023/06/10 09:06:59;;;;;;;;;;;22.40;92.50;;;;;;5074501;28;19908;-43
2023/06/10 09:09:26;;;;;;;;;;;22.40;92.50;;;;;;5073189;28;19915;-46
2023/06/10 09:11:51;;;;;;;;;;;22.40;92.60;;;;;;5074206;28;20026;-45
2023/06/10 09:14:16;;;;;;;;;;;22.40;92.50;;;;;;5073704;28;19949;-43
2023/06/10 09:16:42;;;;;;;;;;;22.40;92.60;;;;;;5074531;28;19908;-44
2023/06/10 09:19:08;;;;;;;;;;;22.40;92.60;;;;;;5074382;28;19913;-45
2023/06/10 09:21:34;;;;;;;;;;;22.40;92.60;;;;;;5074363;28;19959;-43
2023/06/10 09:24:00;;;;;;;;;;;22.40;92.60;;;;;;5074269;28;19997;-43
2023/06/10 09:26:31;;;;;;;;;;;22.40;92.60;;;;;;5074270;28;19913;-43
2023/06/10 09:29:02;;;;;;;;;;;22.40;92.60;;;;;;5074037;28;20382;-46
2023/06/10 09:31:28;;;;;;;;;;;22.40;92.60;;;;;;5073936;28;19920;-43
2023/06/10 09:33:53;;;;;;;;;;;22.40;92.60;;;;;;5074476;28;20264;-44
2023/06/10 09:36:22;;;;;;;;;;;22.40;92.60;;;;;;5073786;28;20008;-43
2023/06/10 09:38:49;;;;;;;;;;;22.40;92.60;;;;;;5074009;28;19908;-43
2023/06/10 09:41:15;;;;;;;;;;;22.40;92.60;;;;;;5073775;28;20363;-45
2023/06/10 09:43:44;;;;;;;;;;;22.40;92.60;;;;;;5074201;28;19919;-42
2023/06/10 09:46:19;;;;;;;;;;;22.40;92.60;;;;;;5073940;28;19909;-43
2023/06/10 09:48:45;;;;;;;;;;;22.40;92.60;;;;;;5073624;28;19912;-43
2023/06/10 09:51:11;;;;;;;;;;;22.40;92.60;;;;;;5073916;28;19939;-43
2023/06/10 09:53:37;;;;;;;;;;;22.40;92.60;;;;;;5073972;28;19908;-45
2023/06/10 09:56:03;;;;;;;;;;;22.40;92.60;;;;;;5074003;28;20248;-43
2023/06/10 09:58:38;;;;;;;;;;;22.40;92.60;;;;;;5073861;28;19908;-44
2023/06/10 10:01:04;;;;;;;;;;;22.40;92.50;;;;;;5073815;28;19970;-45
2023/06/10 10:03:30;;;;;;;;;;;22.40;92.60;;;;;;5073376;28;20352;-45
2023/06/10 10:06:00;;;;;;;;;;;22.40;92.60;;;;;;5073742;28;19928;-44
2023/06/10 10:08:25;;;;;;;;;;;22.40;92.60;;;;;;5073765;28;19908;-42
2023/06/10 10:10:51;;;;;;;;;;;22.40;92.60;;;;;;5073654;28;19915;-45
2023/06/10 10:13:17;;;;;;;;;;;22.40;92.50;;;;;;5073435;28;19909;-45
2023/06/10 10:15:44;;;;;;;;;;;22.40;92.50;;;;;;5073427;28;20374;-42
2023/06/10 10:18:11;;;;;;;;;;;22.40;92.40;;;;;;5073631;28;20386;-46
2023/06/10 10:20:38;;;;;;;;;;;22.40;92.50;;;;;;5073528;28;20244;-47
2023/06/10 10:23:04;;;;;;;;;;;22.40;92.50;;;;;;5073413;28;19908;-42
2023/06/10 10:25:31;;;;;;;;;;;22.40;92.50;;;;;;5073883;28;19999;-43
2023/06/10 10:28:01;;;;;;;;;;;22.40;92.50;;;;;;5077051;28;20363;-44
2023/06/10 10:30:29;;;;;;;;;;;22.40;92.40;;;;;;5077389;28;20240;-43
2023/06/10 10:32:57;;;;;;;;;;;22.40;92.40;;;;;;5077493;28;19962;-44
2023/06/10 10:35:24;;;;;;;;;;;22.40;92.40;;;;;;5077496;28;19915;-45
2023/06/10 10:37:52;;;;;;;;;;;22.40;92.50;;;;;;5077223;28;19909;-43
2023/06/10 10:40:18;;;;;;;;;;;22.40;92.50;;;;;;5077140;28;19916;-43
2023/06/10 10:42:43;;;;;;;;;;;22.40;92.50;;;;;;5077322;28;19909;-43
2023/06/10 10:45:09;;;;;;;;;;;22.40;92.50;;;;;;5077060;28;19999;-44
2023/06/10 10:47:36;;;;;;;;;;;22.40;92.40;;;;;;5076765;28;19920;-42
2023/06/10 10:50:12;;;;;;;;;;;22.40;92.50;;;;;;5077166;28;19913;-43
2023/06/10 10:52:58;;;;;;;;;;;22.40;92.40;;;;;;5077007;28;19916;-45
2023/06/10 10:55:24;;;;;;;;;;;22.40;92.40;;;;;;5077296;28;20118;-44
2023/06/10 10:57:57;;;;;;;;;;;22.40;92.40;;;;;;5077015;28;20030;-44
2023/06/10 11:00:30;;;;;;;;;;;22.40;92.50;;;;;;5077230;28;19962;-43
2023/06/10 11:03:14;;;;;;;;;;;22.50;92.50;;;;;;5076855;28;20061;-44
2023/06/10 11:05:41;;;;;;;;;;;22.40;92.50;;;;;;5085018;28;19983;-44
2023/06/10 11:08:07;;;;;;;;;;;22.40;92.50;;;;;;5093771;28;19915;-45
2023/06/10 11:10:34;;;;;;;;;;;22.40;92.40;;;;;;5116200;28;19918;-43
2023/06/10 11:13:00;;;;;;;;;;;22.40;92.50;;;;;;5112043;28;19920;-45
2023/06/10 11:15:27;;;;;;;;;;;22.40;92.40;;;;;;5117418;28;19907;-43
2023/06/10 11:18:10;;;;;;;;;;;22.40;92.30;;;;;;5108141;28;19916;-45
2023/06/10 11:20:45;;;;;;;;;;;22.40;92.50;;;;;;5096491;28;19908;-51
2023/06/10 11:23:24;;;;;;;;;;;22.40;92.40;;;;;;5085794;28;19919;-45
2023/06/10 11:25:49;;;;;;;;;;;22.40;92.40;;;;;;5104070;28;19919;-42
2023/06/10 11:28:19;;;;;;;;;;;22.50;92.40;;;;;;5101003;28;19913;-43
2023/06/10 11:30:45;;;;;;;;;;;22.50;92.40;;;;;;5096810;28;19912;-43
2023/06/10 11:33:14;;;;;;;;;;;22.50;92.40;;;;;;5095334;28;19916;-44
2023/06/10 11:35:40;;;;;;;;;;;22.50;92.40;;;;;;5106234;28;19922;-42
2023/06/10 11:38:05;;;;;;;;;;;22.50;92.30;;;;;;5095260;28;19959;-44
2023/06/10 11:40:31;;;;;;;;;;;22.50;92.40;;;;;;5096600;28;20304;-47
2023/06/10 11:42:57;;;;;;;;;;;22.50;92.40;;;;;;5078990;28;19946;-43
2023/06/10 11:45:23;;;;;;;;;;;22.50;92.30;;;;;;5096441;28;20006;-42
2023/06/10 11:47:58;;;;;;;;;;;22.50;92.30;;;;;;5096609;28;19955;-44
2023/06/10 11:50:32;;;;;;;;;;;22.50;92.30;;;;;;5096333;28;19973;-43
2023/06/10 11:52:58;;;;;;;;;;;22.50;92.30;;;;;;5096130;28;20014;-45
2023/06/10 11:55:44;;;;;;;;;;;22.50;92.40;;;;;;5093246;28;20011;-46
2023/06/10 11:58:13;;;;;;;;;;;22.50;92.40;;;;;;5101902;28;19916;-45
2023/06/10 12:00:46;;;;;;;;;;;22.50;92.40;;;;;;5096125;28;19912;-45
2023/06/10 12:03:11;;;;;;;;;;;22.50;92.40;;;;;;5095187;28;19919;-46
2023/06/10 12:05:37;;;;;;;;;;;22.50;92.40;;;;;;5095601;28;19908;-43
2023/06/10 12:08:12;;;;;;;;;;;22.50;92.50;;;;;;5077616;28;19908;-44
2023/06/10 12:10:41;;;;;;;;;;;22.50;92.70;;;;;;5095808;28;19953;-44
2023/06/10 12:13:08;;;;;;;;;;;22.50;92.50;;;;;;5098042;28;19924;-45
2023/06/10 12:15:34;;;;;;;;;;;22.50;92.50;;;;;;5101029;28;19923;-44
2023/06/10 12:17:59;;;;;;;;;;;22.50;92.40;;;;;;5095784;28;19908;-44
2023/06/10 12:20:29;;;;;;;;;;;22.50;92.40;;;;;;5095733;28;19912;-44
2023/06/10 12:22:55;;;;;;;;;;;22.50;92.40;;;;;;5095272;28;19946;-42
2023/06/10 12:25:25;;;;;;;;;;;22.50;92.50;;;;;;5095319;28;20007;-44
2023/06/10 12:27:52;;;;;;;;;;;22.50;92.40;;;;;;5095382;28;19909;-43
2023/06/10 12:30:21;;;;;;;;;;;22.50;92.50;;;;;;5102958;28;19931;-43
2023/06/10 12:32:47;;;;;;;;;;;22.50;92.50;;;;;;5100410;28;20363;-43
2023/06/10 12:35:14;;;;;;;;;;;22.50;92.50;;;;;;5079387;28;19912;-48
2023/06/10 12:37:40;;;;;;;;;;;22.50;92.50;;;;;;5115256;28;20359;-46
2023/06/10 12:40:06;;;;;;;;;;;22.40;92.50;;;;;;5113689;28;19908;-45
2023/06/10 12:42:34;;;;;;;;;;;22.50;92.70;;;;;;5114059;28;20340;-47
2023/06/10 12:45:01;;;;;;;;;;;22.50;92.50;;;;;;5114005;28;20003;-43
2023/06/10 12:47:37;;;;;;;;;;;22.50;92.50;;;;;;5113766;28;19924;-48
2023/06/10 12:50:04;;;;;;;;;;;22.50;92.40;;;;;;5113793;28;19911;-44
2023/06/10 12:52:32;;;;;;;;;;;22.50;92.60;;;;;;5113187;28;21513;-43
2023/06/10 12:54:58;;;;;;;;;;;22.50;92.60;;;;;;5115431;28;19957;-42
2023/06/10 12:57:24;;;;;;;;;;;22.50;92.70;;;;;;5115144;28;19930;-45
2023/06/10 12:59:52;;;;;;;;;;;22.50;92.80;;;;;;5115426;28;19908;-43
2023/06/10 13:02:20;;;;;;;;;;;22.50;92.80;;;;;;5114878;28;19908;-44
2023/06/10 13:04:46;;;;;;;;;;;22.50;92.90;;;;;;5115127;28;20263;-44
2023/06/10 13:07:12;;;;;;;;;;;22.50;92.90;;;;;;5115479;28;19911;-42
2023/06/10 13:09:37;;;;;;;;;;;22.50;92.90;;;;;;5115086;28;19931;-44
2023/06/10 13:12:03;;;;;;;;;;;22.50;92.90;;;;;;5114831;28;19923;-44
2023/06/10 13:14:28;;;;;;;;;;;22.50;92.90;;;;;;5114506;28;20366;-47
2023/06/10 13:16:54;;;;;;;;;;;22.50;92.90;;;;;;5114874;28;19912;-44
2023/06/10 13:19:21;;;;;;;;;;;22.50;92.90;;;;;;5115056;28;20012;-45
2023/06/10 13:21:47;;;;;;;;;;;22.50;92.90;;;;;;5114526;28;19908;-43
2023/06/10 13:24:12;;;;;;;;;;;22.50;92.90;;;;;;5115012;28;20037;-42
2023/06/10 13:26:38;;;;;;;;;;;22.50;93.00;;;;;;5114805;28;19908;-43
2023/06/10 13:29:04;;;;;;;;;;;22.50;93.00;;;;;;5114868;28;20361;-44
2023/06/10 13:31:29;;;;;;;;;;;22.50;93.00;;;;;;5114746;28;19916;-49
2023/06/10 13:33:55;;;;;;;;;;;22.50;93.00;;;;;;5114896;28;19907;-44
2023/06/10 13:36:20;;;;;;;;;;;22.50;93.00;;;;;;5114309;28;19908;-44
2023/06/10 13:38:47;;;;;;;;;;;22.50;93.00;;;;;;5097376;28;19916;-45
2023/06/10 13:41:13;;;;;;;;;;;22.50;93.00;;;;;;5095669;28;20015;-43
2023/06/10 13:43:39;;;;;;;;;;;22.50;92.90;;;;;;5094113;28;19916;-43
2023/06/10 13:46:04;;;;;;;;;;;22.50;92.90;;;;;;5094042;28;20047;-44
2023/06/10 13:48:30;;;;;;;;;;;22.50;92.90;;;;;;5093889;28;20264;-44
2023/06/10 13:50:56;;;;;;;;;;;22.50;92.90;;;;;;5094500;28;20243;-44
2023/06/10 13:53:22;;;;;;;;;;;22.50;93.00;;;;;;5108402;28;19912;-44
2023/06/10 13:55:47;;;;;;;;;;;22.50;92.80;;;;;;5112666;28;20279;-45
2023/06/10 13:58:13;;;;;;;;;;;22.50;92.80;;;;;;5093457;28;19939;-43
2023/06/10 14:00:38;;;;;;;;;;;22.50;92.80;;;;;;5092833;28;19912;-46
2023/06/10 14:03:04;;;;;;;;;;;22.50;92.70;;;;;;5105705;28;19914;-44
2023/06/10 14:05:29;;;;;;;;;;;22.50;92.70;;;;;;5105618;28;20168;-46
2023/06/10 14:07:55;;;;;;;;;;;22.50;92.70;;;;;;5111016;28;20286;-46
2023/06/10 14:10:21;;;;;;;;;;;22.50;92.80;;;;;;5094261;28;19958;-47
2023/06/10 14:12:46;;;;;;;;;;;22.50;92.70;;;;;;5090644;28;19916;-47